PROFILE

 METAR AND TAF INFORMATION
ADDS - METARS form results

(1431 UTC 22 January 2019)
http://aviationweather.gov/metar/data/
 
EGLL 221420Z AUTO 23006KT 9999 NCD 05/01 Q1000 TEMPO 6000 -SHRASN
EGLL 221350Z 24007KT 9999 FEW020 05/00 Q1001 NOSIG
TAF EGLL 221059Z 2212/2318 27008KT 9999 FEW035 TEMPO 2214/2218 6000 -SHRASN BKN012 PROB40 TEMPO 2214/2218 2000 SHRASN BKN006 PROB30 TEMPO 2218/2221 3000 -SHSN BKN008 PROB30 TEMPO 2301/2310 BKN008 BECMG 2306/2309 33010KT 

 AIRPORT MAP

 RUNWAY INFORMATION
Runway 09L Runway length 12799 ft Runway width 164 ft
Runway elevation 79 ft Runway displaced threshold 1007 ft Runway heading 90
Runway 27R Runway length 12799 ft Runway width 164 ft
Runway elevation 78 ft Runway displaced threshold 0 ft Runway heading 270
Runway 09R Runway length 12001 ft Runway width 148 ft
Runway elevation 75 ft Runway displaced threshold 1013 ft Runway heading 90
Runway 27L Runway length 12001 ft Runway width 148 ft
Runway elevation 77 ft Runway displaced threshold 0 ft Runway heading 270

 AIRPORT FREQUENCIES
Type APP Name APP Frequency 119.725 MHZ
Type ATIS Name ATIS Frequency 128.075 MHZ
Type CLD Name CLNC DEL Frequency 121.975 MHZ
Type GND Name GND Frequency 121.7 MHZ
Type TWR Name TWR Frequency 118.475 MHZ

 AIRPORT NEAR NAVIGATION AIDS
Type VOR-DME Name London Frequency 113600 KHZ